Disclaimer

Please do not use the information listed here in-flight or in-navigation, as they are not provided to us by the airports but are provided by volunteers, so they might be outdated.

Search


Regions


Airport information page

Radio informations:
Tower (TWR) - SEEREMAR MHz
BOGOTA FIS - 126.9 MHz
Ground (GND) - SEEREMAR MHz
BOGOTA DEP - 119.5 MHz
Clearance delivery - SEEREMAR MHz
BOGOTA APP - 119.5 MHz

Airport informations:
Latitude: 04° 42' 05.74" N
Longitude: 074° 08' 49.01" W
Elevation: 8361 feet - 2548 meters
Operating hours: 24 hour operations
Operating agency: Military-civil joint use airport
Timezone: UTC-5
Fuel: Jet A1, without icing nhibitor.

100/130 octane gasoline, leaded, MIL-L-5572F (GREEN)

Runway information:
13R/31L - 12467 x 148 feet< - >3800 x 45 meters
13L/31R - 12467 x 148 feet< - >3800 x 45 meters

Recent METARs:
SKBO 202000Z 14009KT 9999 SCT023 19/09 A3024
SKBO 202100Z 13006KT 9999 SCT023 20/07 A3023
SKBO 202100Z 13006KT 9999 SCT023 20/07 A3023

Airport on the map: